createdAt,value
2022-08-24T00:00:35.070Z,99.90
2022-08-24T00:03:02.586Z,99.90
2022-08-24T00:05:29.906Z,99.90
2022-08-24T00:07:56.918Z,99.90
2022-08-24T00:10:24.425Z,99.90
2022-08-24T00:12:51.222Z,99.90
2022-08-24T00:15:18.579Z,99.90
2022-08-24T00:17:45.501Z,99.90
2022-08-24T00:20:13.297Z,99.90
2022-08-24T00:22:41.147Z,99.90
2022-08-24T00:25:10.822Z,99.90
2022-08-24T00:27:39.051Z,99.90
2022-08-24T00:30:10.266Z,99.90
2022-08-24T00:32:37.826Z,99.90
2022-08-24T00:35:07.335Z,99.90
2022-08-24T00:37:35.036Z,99.90
2022-08-24T00:40:04.294Z,99.90
2022-08-24T00:42:31.128Z,99.90
2022-08-24T00:44:58.411Z,99.90
2022-08-24T00:47:33.118Z,99.90
2022-08-24T00:50:04.889Z,99.90
2022-08-24T00:52:43.816Z,99.90
2022-08-24T00:55:20.058Z,99.90
2022-08-24T00:57:49.557Z,99.90
2022-08-24T01:00:24.045Z,99.90
2022-08-24T01:02:55.547Z,99.90
2022-08-24T01:05:22.463Z,99.90
2022-08-24T01:07:49.422Z,99.90
2022-08-24T01:10:21.347Z,99.90
2022-08-24T01:13:00.087Z,99.90
2022-08-24T01:15:33.756Z,99.90
2022-08-24T01:18:20.193Z,99.90
2022-08-24T01:20:49.468Z,99.90
2022-08-24T01:23:36.587Z,99.90
2022-08-24T01:26:05.788Z,99.90
2022-08-24T01:28:33.598Z,99.90
2022-08-24T01:31:04.509Z,99.90
2022-08-24T01:33:32.912Z,99.90
2022-08-24T01:36:09.664Z,99.90
2022-08-24T01:38:36.514Z,99.90
2022-08-24T01:41:04.496Z,99.90
2022-08-24T01:43:31.402Z,99.90
2022-08-24T01:46:04.119Z,99.90
2022-08-24T01:48:31.423Z,99.90
2022-08-24T01:50:58.490Z,99.90
2022-08-24T01:53:25.460Z,99.90
2022-08-24T01:55:52.326Z,99.90
2022-08-24T01:58:19.328Z,99.90
2022-08-24T02:00:46.304Z,99.90
2022-08-24T02:03:13.269Z,99.90
2022-08-24T02:05:41.631Z,99.90
2022-08-24T02:08:08.512Z,99.90
2022-08-24T02:10:35.359Z,99.90
2022-08-24T02:13:03.655Z,99.90
2022-08-24T02:15:40.317Z,99.90
2022-08-24T02:18:14.964Z,99.90
2022-08-24T02:20:43.038Z,99.90
2022-08-24T02:23:09.835Z,99.90
2022-08-24T02:25:36.641Z,99.90
2022-08-24T02:28:04.037Z,99.90
2022-08-24T02:30:31.963Z,99.90
2022-08-24T02:32:59.905Z,99.90
2022-08-24T02:35:28.420Z,99.90
2022-08-24T02:37:57.804Z,99.90
2022-08-24T02:40:25.157Z,99.90
2022-08-24T02:42:52.190Z,99.90
2022-08-24T02:45:19.274Z,99.90
2022-08-24T02:47:46.091Z,99.90
2022-08-24T02:50:15.500Z,99.90
2022-08-24T02:52:43.123Z,99.90
2022-08-24T02:55:13.999Z,99.90
2022-08-24T02:57:41.303Z,99.90
2022-08-24T03:00:12.484Z,99.90
2022-08-24T03:02:40.497Z,99.90
2022-08-24T03:05:09.960Z,99.90
2022-08-24T03:07:37.085Z,99.90
2022-08-24T03:10:06.173Z,99.90
2022-08-24T03:12:34.738Z,99.90
2022-08-24T03:15:05.009Z,99.90
2022-08-24T03:17:33.587Z,99.90
2022-08-24T03:20:01.622Z,99.90
2022-08-24T03:22:28.560Z,99.90
2022-08-24T03:24:55.386Z,99.90
2022-08-24T03:27:22.395Z,99.90
2022-08-24T03:29:49.935Z,99.90
2022-08-24T03:32:17.746Z,99.90
2022-08-24T03:34:44.708Z,99.90
2022-08-24T03:37:12.686Z,99.90
2022-08-24T03:39:40.012Z,99.90
2022-08-24T03:42:06.971Z,99.90
2022-08-24T03:44:33.774Z,99.90
2022-08-24T03:47:00.795Z,99.90
2022-08-24T03:49:27.899Z,99.90
2022-08-24T03:51:54.684Z,99.90
2022-08-24T03:54:21.415Z,99.90
2022-08-24T03:56:48.401Z,99.90
2022-08-24T03:59:19.747Z,99.90
2022-08-24T04:01:46.887Z,99.90
2022-08-24T04:04:13.783Z,99.90
2022-08-24T04:06:44.422Z,99.90
2022-08-24T04:09:11.780Z,99.90
2022-08-24T04:11:41.301Z,99.90
2022-08-24T04:14:08.739Z,99.90
2022-08-24T04:16:51.622Z,99.90
2022-08-24T04:19:25.313Z,99.90
2022-08-24T04:21:52.240Z,99.90
2022-08-24T04:24:20.400Z,99.90
2022-08-24T04:26:47.424Z,99.90
2022-08-24T04:29:16.622Z,99.90
2022-08-24T04:31:44.112Z,99.90
2022-08-24T04:34:12.749Z,99.90
2022-08-24T04:36:44.872Z,99.90
2022-08-24T04:39:11.876Z,99.90
2022-08-24T04:41:38.680Z,99.90
2022-08-24T04:44:05.813Z,99.90
2022-08-24T04:46:32.610Z,99.90
2022-08-24T04:48:59.388Z,99.90
2022-08-24T04:51:26.244Z,99.90
2022-08-24T04:53:53.226Z,99.90
2022-08-24T04:56:23.994Z,99.90
2022-08-24T04:58:52.372Z,99.90
2022-08-24T05:01:23.281Z,99.90
2022-08-24T05:03:54.075Z,99.90
2022-08-24T05:06:23.874Z,99.90
2022-08-24T05:08:51.541Z,99.90
2022-08-24T05:11:19.618Z,99.90
2022-08-24T05:13:46.723Z,99.90
2022-08-24T05:16:18.087Z,99.90
2022-08-24T05:18:46.141Z,99.90
2022-08-24T05:21:19.331Z,99.90
2022-08-24T05:23:50.057Z,99.90
2022-08-24T05:26:25.406Z,99.90
2022-08-24T05:28:57.336Z,99.90
2022-08-24T05:31:27.733Z,99.90
2022-08-24T05:33:55.516Z,99.90
2022-08-24T05:36:31.575Z,99.90
2022-08-24T05:39:00.540Z,99.90
2022-08-24T05:41:28.087Z,99.90
2022-08-24T05:43:55.296Z,99.90
2022-08-24T05:46:22.178Z,99.90
2022-08-24T05:48:52.462Z,99.90
2022-08-24T05:51:21.143Z,99.90
2022-08-24T05:53:48.007Z,99.90
2022-08-24T05:56:17.308Z,99.90
2022-08-24T05:58:44.782Z,99.90
2022-08-24T06:01:18.351Z,99.90
2022-08-24T06:03:45.590Z,99.90
2022-08-24T06:06:13.490Z,99.90
2022-08-24T06:08:42.803Z,99.90
2022-08-24T06:11:10.660Z,99.90
2022-08-24T06:13:37.736Z,99.90
2022-08-24T06:16:26.619Z,99.90
2022-08-24T06:18:54.337Z,99.90
2022-08-24T06:21:25.997Z,99.90
2022-08-24T06:23:56.413Z,99.90
2022-08-24T06:26:42.228Z,99.90
2022-08-24T06:29:09.689Z,99.90
2022-08-24T06:31:41.817Z,99.90
2022-08-24T06:34:10.249Z,99.90
2022-08-24T06:36:37.588Z,99.90
2022-08-24T06:39:08.158Z,99.90
2022-08-24T06:41:38.377Z,99.90
2022-08-24T06:44:06.125Z,99.90
2022-08-24T06:46:33.323Z,99.90
2022-08-24T06:49:00.917Z,99.90
2022-08-24T06:51:28.072Z,99.90
2022-08-24T06:53:58.637Z,99.90
2022-08-24T06:56:25.531Z,99.90
2022-08-24T06:58:52.348Z,99.90
2022-08-24T07:01:22.551Z,99.90
2022-08-24T07:03:49.552Z,99.90
2022-08-24T07:06:16.402Z,99.90
2022-08-24T07:08:43.761Z,99.90
2022-08-24T07:11:14.372Z,99.90
2022-08-24T07:13:42.057Z,99.90
2022-08-24T07:16:10.080Z,99.90
2022-08-24T07:18:37.433Z,99.90
2022-08-24T07:21:08.309Z,99.90
2022-08-24T07:23:41.861Z,99.90
2022-08-24T07:26:17.168Z,99.90
2022-08-24T07:28:48.061Z,99.90
2022-08-24T07:31:15.866Z,99.90
2022-08-24T07:33:42.687Z,99.90
2022-08-24T07:36:09.551Z,99.90
2022-08-24T07:38:36.576Z,99.90
2022-08-24T07:41:35.407Z,99.90
2022-08-24T07:43:50.410Z,99.90
2022-08-24T07:46:17.211Z,99.90
2022-08-24T07:48:45.123Z,99.90
2022-08-24T07:51:15.189Z,99.90
2022-08-24T07:53:53.436Z,99.90
2022-08-24T07:56:20.957Z,99.90
2022-08-24T07:58:48.319Z,99.90
2022-08-24T08:01:15.466Z,99.90
2022-08-24T08:03:42.368Z,99.90
2022-08-24T08:06:16.141Z,99.90
2022-08-24T08:08:44.145Z,99.90
2022-08-24T08:11:11.458Z,99.90
2022-08-24T08:16:11.015Z,99.90
2022-08-24T08:18:37.899Z,99.90
2022-08-24T08:21:05.742Z,99.90
2022-08-24T08:23:50.967Z,99.90
2022-08-24T08:26:20.355Z,99.90
2022-08-24T08:28:47.352Z,99.90
2022-08-24T08:31:14.344Z,99.90
2022-08-24T08:33:41.828Z,99.90
2022-08-24T08:36:12.513Z,99.90
2022-08-24T08:38:40.621Z,99.90
2022-08-24T08:41:17.735Z,99.90
2022-08-24T08:43:48.752Z,99.80
2022-08-24T08:46:40.819Z,99.10
2022-08-24T08:49:26.430Z,99.00
2022-08-24T08:52:24.650Z,98.80
2022-08-24T08:55:00.230Z,98.50
2022-08-24T08:57:46.614Z,98.30
2022-08-24T09:00:23.348Z,98.50
2022-08-24T09:03:17.358Z,98.20
2022-08-24T09:06:06.024Z,97.90
2022-08-24T09:09:00.997Z,97.70
2022-08-24T09:11:41.642Z,97.10
2022-08-24T09:14:30.421Z,96.80
2022-08-24T09:17:34.853Z,96.10
2022-08-24T09:20:13.601Z,95.90
2022-08-24T09:22:46.112Z,95.30
2022-08-24T09:25:35.845Z,95.20
2022-08-24T09:28:05.456Z,94.80
2022-08-24T09:30:49.007Z,94.00
2022-08-24T09:33:22.787Z,93.90
2022-08-24T09:36:10.784Z,93.40
2022-08-24T09:38:55.658Z,92.80
2022-08-24T09:41:50.709Z,93.20
2022-08-24T09:44:44.725Z,92.60
2022-08-24T09:47:26.496Z,92.00
2022-08-24T09:50:04.438Z,91.30
2022-08-24T09:52:37.219Z,91.20
2022-08-24T09:55:23.761Z,91.40
2022-08-24T09:58:08.599Z,90.70
2022-08-24T10:00:48.167Z,90.10
2022-08-24T10:03:55.072Z,89.40
2022-08-24T10:06:46.049Z,89.40
2022-08-24T10:09:31.328Z,89.50
2022-08-24T10:12:16.669Z,89.30
2022-08-24T10:14:49.135Z,89.00
2022-08-24T10:17:24.713Z,86.80
2022-08-24T10:20:13.088Z,87.60
2022-08-24T10:22:51.792Z,88.10
2022-08-24T10:25:31.034Z,87.50
2022-08-24T10:28:34.652Z,87.70
2022-08-24T10:31:09.705Z,84.70
2022-08-24T10:34:13.060Z,84.40
2022-08-24T10:37:17.471Z,82.90
2022-08-24T10:39:47.350Z,84.20
2022-08-24T10:42:58.051Z,83.30
2022-08-24T10:45:55.202Z,82.40
2022-08-24T10:49:03.156Z,82.00
2022-08-24T10:51:42.101Z,80.20
2022-08-24T10:54:12.972Z,79.80
2022-08-24T10:56:48.023Z,78.90
2022-08-24T10:59:25.782Z,79.50
2022-08-24T11:02:02.309Z,78.30
2022-08-24T11:04:37.579Z,77.90
2022-08-24T11:07:22.104Z,76.70
2022-08-24T11:10:00.122Z,76.40
2022-08-24T11:12:33.386Z,76.90
2022-08-24T11:15:26.318Z,73.60
2022-08-24T11:18:00.555Z,73.50
2022-08-24T11:20:30.580Z,73.70
2022-08-24T11:23:05.850Z,74.40
2022-08-24T11:25:36.671Z,73.50
2022-08-24T11:28:11.034Z,74.20
2022-08-24T11:30:41.955Z,71.20
2022-08-24T11:33:46.699Z,71.60
2022-08-24T11:36:23.527Z,70.80
2022-08-24T11:39:48.263Z,69.70
2022-08-24T11:42:41.350Z,70.00
2022-08-24T11:45:31.554Z,71.50
2022-08-24T11:48:29.901Z,70.50
2022-08-24T11:51:00.991Z,69.40
2022-08-24T11:54:08.598Z,67.00
2022-08-24T11:57:19.666Z,66.70
2022-08-24T12:00:14.851Z,66.30
2022-08-24T12:02:55.567Z,66.60
2022-08-24T12:05:28.661Z,66.10
2022-08-24T12:08:21.557Z,65.20
2022-08-24T12:10:54.382Z,65.90
2022-08-24T12:13:33.593Z,65.50
2022-08-24T12:16:13.134Z,66.90
2022-08-24T12:18:46.037Z,65.20
2022-08-24T12:21:19.985Z,65.00
2022-08-24T12:23:51.236Z,66.30
2022-08-24T12:26:30.251Z,65.80
2022-08-24T12:29:05.753Z,65.40
2022-08-24T12:31:41.333Z,66.40
2022-08-24T12:34:13.198Z,66.20
2022-08-24T12:36:44.880Z,67.30
2022-08-24T12:39:19.769Z,67.50
2022-08-24T12:41:51.805Z,68.90
2022-08-24T12:44:19.700Z,67.80
2022-08-24T12:46:53.314Z,67.50
2022-08-24T12:49:53.763Z,67.20
2022-08-24T12:52:46.122Z,66.20
2022-08-24T12:55:21.781Z,67.00
2022-08-24T12:58:34.819Z,66.60
2022-08-24T13:01:06.861Z,67.50
2022-08-24T13:03:37.760Z,66.90
2022-08-24T13:06:18.423Z,66.90
2022-08-24T13:08:49.261Z,66.70
2022-08-24T13:11:30.186Z,65.00
2022-08-24T13:14:12.626Z,65.30
2022-08-24T13:16:57.827Z,65.40
2022-08-24T13:19:30.976Z,65.20
2022-08-24T13:22:10.110Z,65.20
2022-08-24T13:24:38.527Z,65.10
2022-08-24T13:27:15.377Z,66.10
2022-08-24T13:30:03.096Z,66.90
2022-08-24T13:32:40.645Z,65.00
2022-08-24T13:35:29.568Z,64.50
2022-08-24T13:38:42.712Z,64.80
2022-08-24T13:41:21.501Z,64.30
2022-08-24T13:44:16.885Z,64.70
2022-08-24T13:47:02.523Z,64.20
2022-08-24T13:49:32.272Z,64.80
2022-08-24T13:52:11.021Z,63.20
2022-08-24T13:55:08.543Z,63.80
2022-08-24T13:57:50.966Z,62.50
2022-08-24T14:00:33.223Z,62.80
2022-08-24T14:03:08.856Z,63.00
2022-08-24T14:05:49.255Z,62.10
2022-08-24T14:08:31.946Z,62.70
2022-08-24T14:10:58.683Z,62.50
2022-08-24T14:13:36.369Z,63.00
2022-08-24T14:16:51.129Z,61.40
2022-08-24T14:19:29.604Z,63.10
2022-08-24T14:22:11.673Z,61.70
2022-08-24T14:24:45.772Z,61.50
2022-08-24T14:27:35.040Z,62.10
2022-08-24T14:30:31.399Z,62.20
2022-08-24T14:33:01.031Z,62.20
2022-08-24T14:35:31.104Z,62.30
2022-08-24T14:38:19.816Z,62.20
2022-08-24T14:41:34.148Z,63.20
2022-08-24T14:44:25.181Z,62.70
2022-08-24T14:47:13.862Z,63.00
2022-08-24T14:49:46.789Z,62.80
2022-08-24T14:52:40.768Z,61.60
2022-08-24T14:55:07.628Z,62.00
2022-08-24T14:58:12.749Z,62.50
2022-08-24T15:01:25.014Z,62.50
2022-08-24T15:04:37.294Z,63.50
2022-08-24T15:07:26.783Z,60.10
2022-08-24T15:09:55.678Z,60.70
2022-08-24T15:12:47.716Z,60.50
2022-08-24T15:15:27.225Z,61.30
2022-08-24T15:18:14.402Z,61.40
2022-08-24T15:20:58.931Z,60.30
2022-08-24T15:23:40.617Z,61.40
2022-08-24T15:26:38.069Z,60.60
2022-08-24T15:29:17.954Z,61.20
2022-08-24T15:31:56.329Z,60.40
2022-08-24T15:34:35.513Z,59.40
2022-08-24T15:37:02.512Z,60.20
2022-08-24T15:39:30.064Z,60.10
2022-08-24T15:41:58.087Z,60.30
2022-08-24T15:44:30.513Z,60.10
2022-08-24T15:47:11.565Z,60.10
2022-08-24T15:49:57.431Z,63.50
2022-08-24T15:52:38.906Z,64.50
2022-08-24T15:55:08.403Z,64.30
2022-08-24T15:57:41.576Z,65.50
2022-08-24T16:00:14.679Z,65.30
2022-08-24T16:02:42.432Z,67.20
2022-08-24T16:05:25.373Z,67.70
2022-08-24T16:08:09.507Z,68.50
2022-08-24T16:10:52.860Z,68.70
2022-08-24T16:13:19.703Z,69.10
2022-08-24T16:15:48.356Z,69.90
2022-08-24T16:18:18.419Z,70.40
2022-08-24T16:20:46.277Z,70.90
2022-08-24T16:23:31.384Z,71.00
2022-08-24T16:26:19.073Z,71.40
2022-08-24T16:28:46.550Z,71.80
2022-08-24T16:31:59.277Z,72.00
2022-08-24T16:34:32.572Z,72.40
2022-08-24T16:36:59.863Z,71.90
2022-08-24T16:39:27.266Z,72.00
2022-08-24T16:41:58.682Z,72.70
2022-08-24T16:44:31.021Z,73.20
2022-08-24T16:46:57.766Z,73.30
2022-08-24T16:49:25.341Z,73.30
2022-08-24T16:51:52.401Z,73.50
2022-08-24T16:54:19.658Z,73.70
2022-08-24T16:56:46.649Z,74.10
2022-08-24T16:59:20.115Z,73.70
2022-08-24T17:01:48.563Z,74.50
2022-08-24T17:04:15.432Z,75.30
2022-08-24T17:06:42.511Z,75.90
2022-08-24T17:09:09.484Z,76.20
2022-08-24T17:11:37.092Z,77.00
2022-08-24T17:14:05.569Z,76.90
2022-08-24T17:16:32.372Z,77.30
2022-08-24T17:18:59.888Z,77.60
2022-08-24T17:21:26.839Z,78.30
2022-08-24T17:23:53.606Z,78.50
2022-08-24T17:26:21.512Z,78.40
2022-08-24T17:28:52.020Z,78.70
2022-08-24T17:31:19.253Z,78.40
2022-08-24T17:33:46.097Z,78.30
2022-08-24T17:36:15.836Z,78.50
2022-08-24T17:38:52.960Z,78.50
2022-08-24T17:41:23.037Z,79.00
2022-08-24T17:43:50.466Z,79.40
2022-08-24T17:46:18.573Z,80.80
2022-08-24T17:48:46.367Z,80.90
2022-08-24T17:51:14.124Z,81.10
2022-08-24T17:53:41.517Z,82.10
2022-08-24T17:56:09.920Z,81.40
2022-08-24T17:58:56.854Z,81.70
2022-08-24T18:01:24.568Z,82.00
2022-08-24T18:03:51.722Z,82.40
2022-08-24T18:06:20.867Z,82.40
2022-08-24T18:08:48.389Z,83.00
2022-08-24T18:11:15.361Z,83.30
2022-08-24T18:13:42.629Z,83.50
2022-08-24T18:16:16.438Z,83.40
2022-08-24T18:18:43.594Z,83.70
2022-08-24T18:21:10.510Z,84.40
2022-08-24T18:23:40.638Z,84.30
2022-08-24T18:26:11.205Z,84.30
2022-08-24T18:28:38.314Z,84.80
2022-08-24T18:31:10.415Z,84.40
2022-08-24T18:33:37.221Z,84.90
2022-08-24T18:36:04.595Z,85.40
2022-08-24T18:38:31.518Z,85.70
2022-08-24T18:41:00.936Z,86.30
2022-08-24T18:43:28.240Z,85.90
2022-08-24T18:45:55.545Z,86.40
2022-08-24T18:48:22.883Z,86.90
2022-08-24T18:50:51.026Z,86.70
2022-08-24T18:53:18.215Z,87.10
2022-08-24T18:55:47.167Z,88.20
2022-08-24T18:58:14.359Z,88.20
2022-08-24T19:00:42.365Z,88.30
2022-08-24T19:03:11.628Z,88.60
2022-08-24T19:05:39.470Z,89.10
2022-08-24T19:08:07.365Z,89.30
2022-08-24T19:10:37.116Z,90.20
2022-08-24T19:13:10.399Z,90.20
2022-08-24T19:15:40.263Z,90.40
2022-08-24T19:18:10.903Z,90.30
2022-08-24T19:20:45.829Z,90.30
2022-08-24T19:23:18.516Z,90.50
2022-08-24T19:25:46.383Z,90.60
2022-08-24T19:28:13.981Z,90.90
2022-08-24T19:30:42.390Z,90.90
2022-08-24T19:33:13.819Z,91.20
2022-08-24T19:35:41.588Z,91.20
2022-08-24T19:38:09.166Z,91.50
2022-08-24T19:40:37.319Z,91.90
2022-08-24T19:43:06.029Z,91.70
2022-08-24T19:45:54.172Z,91.90
2022-08-24T19:48:23.236Z,92.00
2022-08-24T19:50:52.239Z,92.10
2022-08-24T19:53:20.088Z,92.10
2022-08-24T19:55:50.120Z,92.40
2022-08-24T19:58:38.422Z,92.60
2022-08-24T20:01:11.418Z,92.90
2022-08-24T20:03:38.340Z,93.10
2022-08-24T20:06:05.380Z,93.20
2022-08-24T20:08:32.252Z,93.20
2022-08-24T20:11:00.526Z,93.50
2022-08-24T20:13:28.252Z,93.40
2022-08-24T20:15:56.211Z,93.50
2022-08-24T20:18:31.995Z,93.90
2022-08-24T20:20:59.428Z,93.80
2022-08-24T20:23:27.440Z,93.90
2022-08-24T20:25:56.419Z,94.10
2022-08-24T20:28:29.788Z,94.30
2022-08-24T20:30:58.288Z,94.50
2022-08-24T20:33:27.587Z,94.80
2022-08-24T20:35:56.353Z,94.90
2022-08-24T20:38:24.159Z,95.00
2022-08-24T20:40:52.047Z,95.20
2022-08-24T20:43:19.266Z,95.50
2022-08-24T20:45:46.416Z,95.50
2022-08-24T20:48:14.024Z,95.70
2022-08-24T20:50:44.937Z,95.60
2022-08-24T20:53:12.372Z,95.90
2022-08-24T20:55:41.551Z,95.90
2022-08-24T20:58:09.614Z,96.30
2022-08-24T21:00:37.369Z,96.30
2022-08-24T21:03:04.700Z,96.10
2022-08-24T21:05:31.608Z,96.30
2022-08-24T21:07:59.247Z,96.60
2022-08-24T21:10:27.329Z,96.80
2022-08-24T21:12:54.817Z,97.60
2022-08-24T21:15:23.205Z,97.80
2022-08-24T21:17:50.388Z,98.10
2022-08-24T21:20:18.608Z,98.00
2022-08-24T21:22:48.436Z,98.10
2022-08-24T21:25:16.781Z,98.10
2022-08-24T21:27:46.308Z,98.40
2022-08-24T21:30:17.004Z,98.30
2022-08-24T21:33:02.321Z,98.40
2022-08-24T21:35:29.739Z,98.90
2022-08-24T21:37:57.317Z,98.90
2022-08-24T21:40:26.157Z,99.00
2022-08-24T21:42:53.097Z,99.20
2022-08-24T21:45:20.451Z,99.20
2022-08-24T21:47:47.529Z,99.70
2022-08-24T21:50:15.784Z,99.90
2022-08-24T21:52:43.009Z,99.90
2022-08-24T21:55:16.454Z,99.90
2022-08-24T21:57:43.668Z,99.90
2022-08-24T22:00:15.592Z,99.90
2022-08-24T22:02:42.424Z,99.90
2022-08-24T22:05:10.212Z,99.90
2022-08-24T22:07:37.289Z,99.90
2022-08-24T22:10:07.314Z,99.90
2022-08-24T22:12:42.475Z,99.90
2022-08-24T22:15:12.740Z,99.90
2022-08-24T22:17:39.629Z,99.90
2022-08-24T22:20:07.975Z,99.90
2022-08-24T22:22:43.659Z,99.90
2022-08-24T22:25:12.913Z,99.90
2022-08-24T22:27:41.277Z,99.90
2022-08-24T22:30:09.008Z,99.90
2022-08-24T22:32:35.860Z,99.90
2022-08-24T22:35:02.960Z,99.90
2022-08-24T22:37:29.963Z,99.90
2022-08-24T22:39:56.958Z,99.90
2022-08-24T22:42:23.748Z,99.90
2022-08-24T22:44:50.515Z,99.90
2022-08-24T22:47:18.980Z,99.90
2022-08-24T22:49:46.705Z,99.90
2022-08-24T22:52:14.591Z,99.90
2022-08-24T22:54:41.485Z,99.90
2022-08-24T22:57:08.896Z,99.90
2022-08-24T22:59:40.789Z,99.90
2022-08-24T23:02:13.596Z,99.90
2022-08-24T23:04:43.530Z,99.90
2022-08-24T23:07:11.600Z,99.90
2022-08-24T23:09:44.910Z,99.90
2022-08-24T23:12:14.850Z,99.90
2022-08-24T23:14:42.337Z,99.90
2022-08-24T23:17:09.390Z,99.90
2022-08-24T23:19:54.599Z,99.90
2022-08-24T23:22:21.675Z,99.90
2022-08-24T23:24:49.004Z,99.90
2022-08-24T23:27:17.233Z,99.90
2022-08-24T23:29:45.870Z,99.90
2022-08-24T23:32:13.495Z,99.90
2022-08-24T23:34:45.390Z,99.90
2022-08-24T23:37:12.603Z,99.90
2022-08-24T23:39:39.508Z,99.90
2022-08-24T23:42:06.917Z,99.90
2022-08-24T23:44:33.960Z,99.90
2022-08-24T23:47:01.145Z,99.90
2022-08-24T23:49:29.497Z,99.90
2022-08-24T23:51:57.244Z,99.90
2022-08-24T23:54:24.702Z,99.90
2022-08-24T23:56:52.848Z,99.90
2022-08-24T23:59:26.573Z,99.90
